Terminal Aerodrome Forecast
Issued by NWS Medford, OR

Home | Current Version | Previous Version | Text Only | Print | Product List | Glossary On
Versions: 1 2 3 4 5 6 7 8 9 10 11 12 13 14 15
000
FTUS46 KMFR 071747
TAFMFR
TAF
KMFR 071747Z 0718/0818 32003KT P6SM FEW100 SCT300
     FM072300 32011G18KT P6SM FEW080 SCT120 SCT300
     FM080200 VRB10G20KT P6SM -SHRA VCTS FEW060 BKN080CB BKN120
     FM080700 VRB03KT P6SM -SHRA SCT080 BKN120 BKN180=

USA.gov is the U.S. government's official web portal to all federal, state and local government web resources and services.